sensor_id;sensor_type;location;lat;lon;timestamp;P1;durP1;ratioP1;P2;durP2;ratioP2
21941;SDS011;11135;54.192;15.670;2024-02-28T00:02:10;10.05;;;4.22;;
21941;SDS011;11135;54.192;15.670;2024-02-28T00:05:38;12.40;;;4.88;;
21941;SDS011;11135;54.192;15.670;2024-02-28T00:09:04;11.05;;;4.57;;
21941;SDS011;11135;54.192;15.670;2024-02-28T00:12:29;9.77;;;3.97;;
21941;SDS011;11135;54.192;15.670;2024-02-28T00:15:56;5.63;;;3.22;;
21941;SDS011;11135;54.192;15.670;2024-02-28T00:19:22;8.80;;;4.03;;
21941;SDS011;11135;54.192;15.670;2024-02-28T00:22:50;8.43;;;3.22;;
21941;SDS011;11135;54.192;15.670;2024-02-28T00:26:16;13.52;;;4.90;;
21941;SDS011;11135;54.192;15.670;2024-02-28T00:29:42;11.93;;;4.55;;
21941;SDS011;11135;54.192;15.670;2024-02-28T00:33:08;5.75;;;3.20;;
21941;SDS011;11135;54.192;15.670;2024-02-28T00:36:34;7.63;;;2.80;;
21941;SDS011;11135;54.192;15.670;2024-02-28T00:40:19;5.23;;;2.80;;
21941;SDS011;11135;54.192;15.670;2024-02-28T00:43:45;6.72;;;3.45;;
21941;SDS011;11135;54.192;15.670;2024-02-28T00:47:11;7.32;;;4.15;;
21941;SDS011;11135;54.192;15.670;2024-02-28T00:50:36;7.80;;;3.35;;
21941;SDS011;11135;54.192;15.670;2024-02-28T00:54:02;8.27;;;4.22;;
21941;SDS011;11135;54.192;15.670;2024-02-28T00:57:31;5.13;;;2.60;;
21941;SDS011;11135;54.192;15.670;2024-02-28T01:00:57;7.35;;;3.30;;
21941;SDS011;11135;54.192;15.670;2024-02-28T01:04:23;7.18;;;3.45;;
21941;SDS011;11135;54.192;15.670;2024-02-28T01:07:48;6.88;;;3.92;;
21941;SDS011;11135;54.192;15.670;2024-02-28T01:11:15;8.60;;;3.58;;
21941;SDS011;11135;54.192;15.670;2024-02-28T01:14:44;8.40;;;4.20;;
21941;SDS011;11135;54.192;15.670;2024-02-28T01:18:10;8.98;;;4.05;;
21941;SDS011;11135;54.192;15.670;2024-02-28T01:21:35;7.30;;;3.55;;
21941;SDS011;11135;54.192;15.670;2024-02-28T01:25:02;5.78;;;2.85;;
21941;SDS011;11135;54.192;15.670;2024-02-28T01:28:27;7.55;;;4.25;;
21941;SDS011;11135;54.192;15.670;2024-02-28T01:31:56;7.30;;;3.47;;
21941;SDS011;11135;54.192;15.670;2024-02-28T01:35:22;9.43;;;4.78;;
21941;SDS011;11135;54.192;15.670;2024-02-28T01:38:48;7.97;;;4.07;;
21941;SDS011;11135;54.192;15.670;2024-02-28T01:42:13;7.28;;;3.55;;
21941;SDS011;11135;54.192;15.670;2024-02-28T01:45:39;9.23;;;3.78;;
21941;SDS011;11135;54.192;15.670;2024-02-28T01:49:08;11.95;;;4.55;;
21941;SDS011;11135;54.192;15.670;2024-02-28T01:52:33;8.23;;;3.75;;
21941;SDS011;11135;54.192;15.670;2024-02-28T01:55:59;8.13;;;3.85;;
21941;SDS011;11135;54.192;15.670;2024-02-28T01:59:25;8.05;;;3.67;;
21941;SDS011;11135;54.192;15.670;2024-02-28T02:02:51;5.25;;;2.95;;
21941;SDS011;11135;54.192;15.670;2024-02-28T02:06:19;7.22;;;3.50;;
21941;SDS011;11135;54.192;15.670;2024-02-28T02:09:45;6.60;;;3.22;;
21941;SDS011;11135;54.192;15.670;2024-02-28T02:13:13;7.82;;;4.53;;
21941;SDS011;11135;54.192;15.670;2024-02-28T02:16:38;9.55;;;4.40;;
21941;SDS011;11135;54.192;15.670;2024-02-28T02:20:05;8.88;;;4.15;;
21941;SDS011;11135;54.192;15.670;2024-02-28T02:23:33;7.35;;;4.43;;
21941;SDS011;11135;54.192;15.670;2024-02-28T02:27:04;8.02;;;3.78;;
21941;SDS011;11135;54.192;15.670;2024-02-28T02:30:29;8.07;;;3.67;;
21941;SDS011;11135;54.192;15.670;2024-02-28T02:33:55;4.95;;;2.17;;
21941;SDS011;11135;54.192;15.670;2024-02-28T02:37:22;5.90;;;3.28;;
21941;SDS011;11135;54.192;15.670;2024-02-28T02:40:51;6.30;;;3.58;;
21941;SDS011;11135;54.192;15.670;2024-02-28T02:44:17;7.35;;;3.80;;
21941;SDS011;11135;54.192;15.670;2024-02-28T02:47:46;5.55;;;3.45;;
21941;SDS011;11135;54.192;15.670;2024-02-28T02:51:14;9.63;;;4.50;;
21941;SDS011;11135;54.192;15.670;2024-02-28T02:54:41;9.15;;;4.72;;
21941;SDS011;11135;54.192;15.670;2024-02-28T02:58:09;7.60;;;4.15;;
21941;SDS011;11135;54.192;15.670;2024-02-28T03:01:36;10.20;;;5.07;;
21941;SDS011;11135;54.192;15.670;2024-02-28T03:05:01;9.73;;;4.07;;
21941;SDS011;11135;54.192;15.670;2024-02-28T03:08:27;10.60;;;4.82;;
21941;SDS011;11135;54.192;15.670;2024-02-28T03:11:53;9.07;;;4.32;;
21941;SDS011;11135;54.192;15.670;2024-02-28T03:15:21;9.13;;;3.80;;
21941;SDS011;11135;54.192;15.670;2024-02-28T03:18:47;9.05;;;3.90;;
21941;SDS011;11135;54.192;15.670;2024-02-28T03:22:13;8.75;;;4.38;;
21941;SDS011;11135;54.192;15.670;2024-02-28T03:25:38;6.28;;;3.83;;
21941;SDS011;11135;54.192;15.670;2024-02-28T03:29:04;10.10;;;4.90;;
21941;SDS011;11135;54.192;15.670;2024-02-28T03:32:34;10.45;;;4.95;;
21941;SDS011;11135;54.192;15.670;2024-02-28T03:36:00;11.40;;;5.68;;
21941;SDS011;11135;54.192;15.670;2024-02-28T03:39:26;11.35;;;4.57;;
21941;SDS011;11135;54.192;15.670;2024-02-28T03:42:51;8.55;;;4.45;;
21941;SDS011;11135;54.192;15.670;2024-02-28T03:46:19;12.93;;;5.60;;
21941;SDS011;11135;54.192;15.670;2024-02-28T03:49:47;14.13;;;5.72;;
21941;SDS011;11135;54.192;15.670;2024-02-28T03:53:17;11.00;;;5.67;;
21941;SDS011;11135;54.192;15.670;2024-02-28T03:56:43;10.70;;;6.65;;
21941;SDS011;11135;54.192;15.670;2024-02-28T04:00:10;9.55;;;5.82;;
21941;SDS011;11135;54.192;15.670;2024-02-28T04:03:37;12.52;;;6.55;;
21941;SDS011;11135;54.192;15.670;2024-02-28T04:07:05;12.00;;;6.25;;
21941;SDS011;11135;54.192;15.670;2024-02-28T04:10:31;11.68;;;6.63;;
21941;SDS011;11135;54.192;15.670;2024-02-28T04:13:57;10.38;;;6.13;;
21941;SDS011;11135;54.192;15.670;2024-02-28T04:17:23;10.80;;;6.35;;
21941;SDS011;11135;54.192;15.670;2024-02-28T04:20:48;11.20;;;6.70;;
21941;SDS011;11135;54.192;15.670;2024-02-28T04:24:17;12.07;;;6.55;;
21941;SDS011;11135;54.192;15.670;2024-02-28T04:27:43;9.63;;;4.93;;
21941;SDS011;11135;54.192;15.670;2024-02-28T04:31:10;9.68;;;5.65;;
21941;SDS011;11135;54.192;15.670;2024-02-28T04:34:36;8.95;;;4.55;;
21941;SDS011;11135;54.192;15.670;2024-02-28T04:38:02;9.65;;;5.45;;
21941;SDS011;11135;54.192;15.670;2024-02-28T04:41:31;10.18;;;5.80;;
21941;SDS011;11135;54.192;15.670;2024-02-28T04:44:57;11.52;;;6.65;;
21941;SDS011;11135;54.192;15.670;2024-02-28T04:48:24;9.00;;;5.28;;
21941;SDS011;11135;54.192;15.670;2024-02-28T04:51:50;9.68;;;4.70;;
21941;SDS011;11135;54.192;15.670;2024-02-28T04:55:17;10.15;;;5.85;;
21941;SDS011;11135;54.192;15.670;2024-02-28T04:58:46;9.23;;;4.85;;
21941;SDS011;11135;54.192;15.670;2024-02-28T05:02:12;11.30;;;4.93;;
21941;SDS011;11135;54.192;15.670;2024-02-28T05:05:38;10.02;;;5.85;;
21941;SDS011;11135;54.192;15.670;2024-02-28T05:09:04;10.98;;;5.55;;
21941;SDS011;11135;54.192;15.670;2024-02-28T05:12:30;10.23;;;4.80;;
21941;SDS011;11135;54.192;15.670;2024-02-28T05:15:58;7.03;;;4.88;;
21941;SDS011;11135;54.192;15.670;2024-02-28T05:19:24;8.63;;;3.97;;
21941;SDS011;11135;54.192;15.670;2024-02-28T05:22:50;9.82;;;5.05;;
21941;SDS011;11135;54.192;15.670;2024-02-28T05:26:16;11.75;;;5.00;;
21941;SDS011;11135;54.192;15.670;2024-02-28T05:29:42;10.55;;;5.22;;
21941;SDS011;11135;54.192;15.670;2024-02-28T05:33:10;7.10;;;4.30;;
21941;SDS011;11135;54.192;15.670;2024-02-28T05:36:36;7.93;;;4.72;;
21941;SDS011;11135;54.192;15.670;2024-02-28T05:40:02;8.15;;;4.60;;
21941;SDS011;11135;54.192;15.670;2024-02-28T05:43:28;8.00;;;4.55;;
21941;SDS011;11135;54.192;15.670;2024-02-28T05:46:54;6.68;;;3.60;;
21941;SDS011;11135;54.192;15.670;2024-02-28T05:50:22;7.15;;;4.28;;
21941;SDS011;11135;54.192;15.670;2024-02-28T05:53:48;7.90;;;4.18;;
21941;SDS011;11135;54.192;15.670;2024-02-28T05:57:13;11.48;;;4.63;;
21941;SDS011;11135;54.192;15.670;2024-02-28T06:00:39;20.38;;;5.85;;
21941;SDS011;11135;54.192;15.670;2024-02-28T06:04:05;12.95;;;5.53;;
21941;SDS011;11135;54.192;15.670;2024-02-28T06:07:33;8.68;;;5.18;;
21941;SDS011;11135;54.192;15.670;2024-02-28T06:10:59;9.82;;;3.78;;
21941;SDS011;11135;54.192;15.670;2024-02-28T06:14:25;7.40;;;4.00;;
21941;SDS011;11135;54.192;15.670;2024-02-28T06:17:50;10.40;;;5.47;;
21941;SDS011;11135;54.192;15.670;2024-02-28T06:21:16;7.60;;;3.65;;
21941;SDS011;11135;54.192;15.670;2024-02-28T06:24:45;7.82;;;4.20;;
21941;SDS011;11135;54.192;15.670;2024-02-28T06:28:11;8.98;;;4.43;;
21941;SDS011;11135;54.192;15.670;2024-02-28T06:31:37;5.53;;;2.80;;
21941;SDS011;11135;54.192;15.670;2024-02-28T06:35:03;6.80;;;3.00;;
21941;SDS011;11135;54.192;15.670;2024-02-28T06:38:29;7.55;;;3.67;;
21941;SDS011;11135;54.192;15.670;2024-02-28T06:42:00;5.97;;;2.80;;
21941;SDS011;11135;54.192;15.670;2024-02-28T06:45:25;5.25;;;2.75;;
21941;SDS011;11135;54.192;15.670;2024-02-28T06:48:51;5.03;;;2.90;;
21941;SDS011;11135;54.192;15.670;2024-02-28T06:52:17;6.47;;;3.17;;
21941;SDS011;11135;54.192;15.670;2024-02-28T06:55:43;4.95;;;2.83;;
21941;SDS011;11135;54.192;15.670;2024-02-28T06:59:14;6.95;;;2.92;;
21941;SDS011;11135;54.192;15.670;2024-02-28T07:02:39;6.18;;;2.70;;
21941;SDS011;11135;54.192;15.670;2024-02-28T07:06:05;5.15;;;3.28;;
21941;SDS011;11135;54.192;15.670;2024-02-28T07:09:31;6.75;;;2.78;;
21941;SDS011;11135;54.192;15.670;2024-02-28T07:12:57;5.35;;;2.45;;
21941;SDS011;11135;54.192;15.670;2024-02-28T07:16:25;6.05;;;2.63;;
21941;SDS011;11135;54.192;15.670;2024-02-28T07:19:51;7.60;;;3.42;;
21941;SDS011;11135;54.192;15.670;2024-02-28T07:23:19;5.53;;;2.45;;
21941;SDS011;11135;54.192;15.670;2024-02-28T07:26:45;4.53;;;2.40;;
21941;SDS011;11135;54.192;15.670;2024-02-28T07:30:12;4.95;;;2.80;;
21941;SDS011;11135;54.192;15.670;2024-02-28T07:33:42;4.50;;;2.42;;
21941;SDS011;11135;54.192;15.670;2024-02-28T07:37:08;4.40;;;2.10;;
21941;SDS011;11135;54.192;15.670;2024-02-28T07:40:35;3.30;;;1.73;;
21941;SDS011;11135;54.192;15.670;2024-02-28T07:44:00;5.60;;;2.17;;
21941;SDS011;11135;54.192;15.670;2024-02-28T07:47:26;5.50;;;1.95;;
21941;SDS011;11135;54.192;15.670;2024-02-28T07:50:55;5.40;;;2.67;;
21941;SDS011;11135;54.192;15.670;2024-02-28T07:54:20;4.25;;;2.25;;
21941;SDS011;11135;54.192;15.670;2024-02-28T07:57:46;3.45;;;2.10;;
21941;SDS011;11135;54.192;15.670;2024-02-28T08:01:12;4.18;;;2.05;;
21941;SDS011;11135;54.192;15.670;2024-02-28T08:04:39;4.30;;;1.60;;
21941;SDS011;11135;54.192;15.670;2024-02-28T08:08:08;3.08;;;1.45;;
21941;SDS011;11135;54.192;15.670;2024-02-28T08:11:34;2.17;;;1.30;;
21941;SDS011;11135;54.192;15.670;2024-02-28T08:15:00;4.15;;;1.50;;
21941;SDS011;11135;54.192;15.670;2024-02-28T08:18:25;3.78;;;1.55;;
21941;SDS011;11135;54.192;15.670;2024-02-28T08:21:51;2.35;;;1.40;;
21941;SDS011;11135;54.192;15.670;2024-02-28T08:25:19;3.05;;;1.63;;
21941;SDS011;11135;54.192;15.670;2024-02-28T08:28:45;2.85;;;1.70;;
21941;SDS011;11135;54.192;15.670;2024-02-28T08:32:11;2.85;;;1.58;;
21941;SDS011;11135;54.192;15.670;2024-02-28T08:35:36;3.22;;;1.90;;
21941;SDS011;11135;54.192;15.670;2024-02-28T08:39:02;5.80;;;1.50;;
21941;SDS011;11135;54.192;15.670;2024-02-28T08:42:34;3.13;;;1.63;;
21941;SDS011;11135;54.192;15.670;2024-02-28T08:46:00;3.70;;;1.88;;
21941;SDS011;11135;54.192;15.670;2024-02-28T08:49:26;3.47;;;1.58;;
21941;SDS011;11135;54.192;15.670;2024-02-28T08:52:53;2.38;;;1.60;;
21941;SDS011;11135;54.192;15.670;2024-02-28T08:56:18;2.47;;;1.38;;
21941;SDS011;11135;54.192;15.670;2024-02-28T08:59:47;5.05;;;1.80;;
21941;SDS011;11135;54.192;15.670;2024-02-28T09:03:15;3.17;;;1.67;;
21941;SDS011;11135;54.192;15.670;2024-02-28T09:06:42;2.85;;;1.50;;
21941;SDS011;11135;54.192;15.670;2024-02-28T09:10:08;3.03;;;1.60;;
21941;SDS011;11135;54.192;15.670;2024-02-28T09:13:34;3.70;;;1.70;;
21941;SDS011;11135;54.192;15.670;2024-02-28T09:17:03;2.95;;;1.40;;
21941;SDS011;11135;54.192;15.670;2024-02-28T09:20:29;3.42;;;1.80;;
21941;SDS011;11135;54.192;15.670;2024-02-28T09:23:55;5.05;;;2.45;;
21941;SDS011;11135;54.192;15.670;2024-02-28T09:27:22;6.38;;;2.80;;
21941;SDS011;11135;54.192;15.670;2024-02-28T09:30:48;7.60;;;2.97;;
21941;SDS011;11135;54.192;15.670;2024-02-28T09:34:18;6.60;;;3.10;;
21941;SDS011;11135;54.192;15.670;2024-02-28T09:37:43;5.38;;;2.45;;
21941;SDS011;11135;54.192;15.670;2024-02-28T09:41:09;6.50;;;3.10;;
21941;SDS011;11135;54.192;15.670;2024-02-28T09:44:40;6.53;;;3.17;;
21941;SDS011;11135;54.192;15.670;2024-02-28T09:48:06;5.97;;;3.00;;
21941;SDS011;11135;54.192;15.670;2024-02-28T09:51:35;7.75;;;4.10;;
21941;SDS011;11135;54.192;15.670;2024-02-28T09:55:01;5.15;;;2.72;;
21941;SDS011;11135;54.192;15.670;2024-02-28T09:58:27;6.53;;;3.33;;
21941;SDS011;11135;54.192;15.670;2024-02-28T10:01:55;5.93;;;3.10;;
21941;SDS011;11135;54.192;15.670;2024-02-28T10:05:26;6.00;;;2.67;;
21941;SDS011;11135;54.192;15.670;2024-02-28T10:08:54;5.47;;;2.88;;
21941;SDS011;11135;54.192;15.670;2024-02-28T10:12:20;4.82;;;2.30;;
21941;SDS011;11135;54.192;15.670;2024-02-28T10:15:47;4.57;;;2.42;;
21941;SDS011;11135;54.192;15.670;2024-02-28T10:19:13;3.33;;;1.80;;
21941;SDS011;11135;54.192;15.670;2024-02-28T10:22:39;3.10;;;1.58;;
21941;SDS011;11135;54.192;15.670;2024-02-28T10:26:08;3.63;;;1.50;;
21941;SDS011;11135;54.192;15.670;2024-02-28T10:29:34;3.53;;;2.10;;
21941;SDS011;11135;54.192;15.670;2024-02-28T10:32:59;2.72;;;1.77;;
21941;SDS011;11135;54.192;15.670;2024-02-28T10:36:25;2.05;;;1.50;;
21941;SDS011;11135;54.192;15.670;2024-02-28T10:39:51;1.40;;;1.00;;
21941;SDS011;11135;54.192;15.670;2024-02-28T10:43:20;4.70;;;1.50;;
21941;SDS011;11135;54.192;15.670;2024-02-28T10:46:48;1.60;;;1.10;;
21941;SDS011;11135;54.192;15.670;2024-02-28T10:50:14;1.85;;;1.15;;
21941;SDS011;11135;54.192;15.670;2024-02-28T10:53:43;1.55;;;1.10;;
21941;SDS011;11135;54.192;15.670;2024-02-28T10:57:12;1.67;;;1.13;;
21941;SDS011;11135;54.192;15.670;2024-02-28T11:00:41;2.03;;;1.38;;
21941;SDS011;11135;54.192;15.670;2024-02-28T11:04:07;1.83;;;1.20;;
21941;SDS011;11135;54.192;15.670;2024-02-28T11:07:34;3.25;;;1.63;;
21941;SDS011;11135;54.192;15.670;2024-02-28T11:11:03;2.90;;;1.50;;
21941;SDS011;11135;54.192;15.670;2024-02-28T11:14:30;2.67;;;1.60;;
21941;SDS011;11135;54.192;15.670;2024-02-28T11:18:09;3.38;;;1.95;;
21941;SDS011;11135;54.192;15.670;2024-02-28T11:21:35;5.80;;;3.65;;
21941;SDS011;11135;54.192;15.670;2024-02-28T11:25:01;5.75;;;2.70;;
21941;SDS011;11135;54.192;15.670;2024-02-28T11:28:28;4.68;;;2.83;;
21941;SDS011;11135;54.192;15.670;2024-02-28T11:31:53;3.70;;;2.50;;
21941;SDS011;11135;54.192;15.670;2024-02-28T11:35:22;3.72;;;2.15;;
21941;SDS011;11135;54.192;15.670;2024-02-28T11:38:48;4.05;;;2.40;;
21941;SDS011;11135;54.192;15.670;2024-02-28T11:42:14;3.13;;;2.22;;
21941;SDS011;11135;54.192;15.670;2024-02-28T11:45:40;4.10;;;2.47;;
21941;SDS011;11135;54.192;15.670;2024-02-28T11:49:06;4.20;;;2.67;;
21941;SDS011;11135;54.192;15.670;2024-02-28T11:52:35;4.40;;;2.75;;
21941;SDS011;11135;54.192;15.670;2024-02-28T11:56:01;4.70;;;2.35;;
21941;SDS011;11135;54.192;15.670;2024-02-28T11:59:27;4.45;;;2.60;;
21941;SDS011;11135;54.192;15.670;2024-02-28T12:02:52;4.75;;;3.30;;
21941;SDS011;11135;54.192;15.670;2024-02-28T12:06:18;5.32;;;3.05;;
21941;SDS011;11135;54.192;15.670;2024-02-28T12:09:46;4.97;;;3.55;;
21941;SDS011;11135;54.192;15.670;2024-02-28T12:13:15;6.20;;;3.53;;
21941;SDS011;11135;54.192;15.670;2024-02-28T12:16:40;6.18;;;3.88;;
21941;SDS011;11135;54.192;15.670;2024-02-28T12:20:09;5.97;;;3.97;;
21941;SDS011;11135;54.192;15.670;2024-02-28T12:23:35;6.72;;;3.67;;
21941;SDS011;11135;54.192;15.670;2024-02-28T12:27:03;6.80;;;3.50;;
21941;SDS011;11135;54.192;15.670;2024-02-28T12:30:29;6.05;;;3.30;;
21941;SDS011;11135;54.192;15.670;2024-02-28T12:33:54;6.47;;;3.80;;
21941;SDS011;11135;54.192;15.670;2024-02-28T12:37:20;6.75;;;3.90;;
21941;SDS011;11135;54.192;15.670;2024-02-28T12:40:46;9.00;;;4.55;;
21941;SDS011;11135;54.192;15.670;2024-02-28T12:44:14;10.73;;;5.07;;
21941;SDS011;11135;54.192;15.670;2024-02-28T12:47:40;8.27;;;4.82;;
21941;SDS011;11135;54.192;15.670;2024-02-28T12:51:08;11.88;;;6.88;;
21941;SDS011;11135;54.192;15.670;2024-02-28T12:54:34;12.75;;;6.63;;
21941;SDS011;11135;54.192;15.670;2024-02-28T12:58:01;12.52;;;6.90;;
21941;SDS011;11135;54.192;15.670;2024-02-28T13:01:31;11.73;;;6.68;;
21941;SDS011;11135;54.192;15.670;2024-02-28T13:04:57;14.45;;;6.80;;
21941;SDS011;11135;54.192;15.670;2024-02-28T13:08:22;15.85;;;8.25;;
21941;SDS011;11135;54.192;15.670;2024-02-28T13:11:48;13.70;;;6.43;;
21941;SDS011;11135;54.192;15.670;2024-02-28T13:15:14;11.35;;;5.55;;
21941;SDS011;11135;54.192;15.670;2024-02-28T13:18:43;9.52;;;5.30;;
21941;SDS011;11135;54.192;15.670;2024-02-28T13:22:08;11.98;;;5.70;;
21941;SDS011;11135;54.192;15.670;2024-02-28T13:25:34;9.90;;;5.00;;
21941;SDS011;11135;54.192;15.670;2024-02-28T13:29:00;11.55;;;5.63;;
21941;SDS011;11135;54.192;15.670;2024-02-28T13:32:25;13.73;;;5.93;;
21941;SDS011;11135;54.192;15.670;2024-02-28T13:35:54;11.90;;;5.20;;
21941;SDS011;11135;54.192;15.670;2024-02-28T13:39:21;9.50;;;4.57;;
21941;SDS011;11135;54.192;15.670;2024-02-28T13:42:48;10.95;;;5.53;;
21941;SDS011;11135;54.192;15.670;2024-02-28T13:46:17;9.85;;;5.43;;
21941;SDS011;11135;54.192;15.670;2024-02-28T13:49:49;11.20;;;5.35;;
21941;SDS011;11135;54.192;15.670;2024-02-28T13:53:17;11.70;;;5.43;;
21941;SDS011;11135;54.192;15.670;2024-02-28T13:56:43;8.57;;;4.50;;
21941;SDS011;11135;54.192;15.670;2024-02-28T14:00:10;8.60;;;4.78;;
21941;SDS011;11135;54.192;15.670;2024-02-28T14:03:39;7.82;;;4.57;;
21941;SDS011;11135;54.192;15.670;2024-02-28T14:07:04;9.13;;;5.35;;
21941;SDS011;11135;54.192;15.670;2024-02-28T14:10:33;9.52;;;5.15;;
21941;SDS011;11135;54.192;15.670;2024-02-28T14:13:59;8.43;;;3.80;;
21941;SDS011;11135;54.192;15.670;2024-02-28T14:17:26;7.50;;;4.00;;
21941;SDS011;11135;54.192;15.670;2024-02-28T14:20:52;8.13;;;4.15;;
21941;SDS011;11135;54.192;15.670;2024-02-28T14:24:19;7.72;;;3.45;;
21941;SDS011;11135;54.192;15.670;2024-02-28T14:27:48;4.75;;;2.97;;
21941;SDS011;11135;54.192;15.670;2024-02-28T14:31:13;6.07;;;3.45;;
21941;SDS011;11135;54.192;15.670;2024-02-28T14:34:39;7.40;;;4.13;;
21941;SDS011;11135;54.192;15.670;2024-02-28T14:38:05;7.60;;;3.55;;
21941;SDS011;11135;54.192;15.670;2024-02-28T14:41:31;7.20;;;3.55;;
21941;SDS011;11135;54.192;15.670;2024-02-28T14:45:00;5.45;;;2.53;;
21941;SDS011;11135;54.192;15.670;2024-02-28T14:48:27;6.55;;;3.05;;
21941;SDS011;11135;54.192;15.670;2024-02-28T14:51:53;5.35;;;2.72;;
21941;SDS011;11135;54.192;15.670;2024-02-28T14:55:19;6.07;;;2.78;;
21941;SDS011;11135;54.192;15.670;2024-02-28T14:58:46;5.32;;;2.88;;
21941;SDS011;11135;54.192;15.670;2024-02-28T15:02:14;6.78;;;3.10;;
21941;SDS011;11135;54.192;15.670;2024-02-28T15:05:42;6.32;;;2.72;;
21941;SDS011;11135;54.192;15.670;2024-02-28T15:09:15;4.82;;;2.13;;
21941;SDS011;11135;54.192;15.670;2024-02-28T15:12:44;6.28;;;2.70;;
21941;SDS011;11135;54.192;15.670;2024-02-28T15:16:09;5.05;;;2.75;;
21941;SDS011;11135;54.192;15.670;2024-02-28T15:19:39;13.20;;;4.28;;
21941;SDS011;11135;54.192;15.670;2024-02-28T15:23:05;5.70;;;3.00;;
21941;SDS011;11135;54.192;15.670;2024-02-28T15:26:32;11.57;;;4.35;;
21941;SDS011;11135;54.192;15.670;2024-02-28T15:30:08;9.75;;;3.40;;
21941;SDS011;11135;54.192;15.670;2024-02-28T15:33:34;8.10;;;3.35;;
21941;SDS011;11135;54.192;15.670;2024-02-28T15:37:03;6.75;;;3.08;;
21941;SDS011;11135;54.192;15.670;2024-02-28T15:40:32;8.95;;;3.90;;
21941;SDS011;11135;54.192;15.670;2024-02-28T15:43:59;6.35;;;2.88;;
21941;SDS011;11135;54.192;15.670;2024-02-28T15:47:25;7.50;;;2.88;;
21941;SDS011;11135;54.192;15.670;2024-02-28T15:50:54;6.45;;;3.10;;
21941;SDS011;11135;54.192;15.670;2024-02-28T15:54:22;6.95;;;3.20;;
21941;SDS011;11135;54.192;15.670;2024-02-28T15:57:50;7.93;;;3.08;;
21941;SDS011;11135;54.192;15.670;2024-02-28T16:01:18;9.52;;;3.20;;
21941;SDS011;11135;54.192;15.670;2024-02-28T16:04:45;8.65;;;3.53;;
21941;SDS011;11135;54.192;15.670;2024-02-28T16:08:11;7.40;;;3.28;;
21941;SDS011;11135;54.192;15.670;2024-02-28T16:11:44;6.72;;;3.20;;
21941;SDS011;11135;54.192;15.670;2024-02-28T16:15:10;7.43;;;3.03;;
21941;SDS011;11135;54.192;15.670;2024-02-28T16:18:36;7.63;;;3.50;;
21941;SDS011;11135;54.192;15.670;2024-02-28T16:22:02;8.95;;;4.10;;
21941;SDS011;11135;54.192;15.670;2024-02-28T16:25:28;8.27;;;4.40;;
21941;SDS011;11135;54.192;15.670;2024-02-28T16:28:57;8.10;;;3.10;;
21941;SDS011;11135;54.192;15.670;2024-02-28T16:32:23;7.55;;;3.00;;
21941;SDS011;11135;54.192;15.670;2024-02-28T16:35:48;7.00;;;3.10;;
21941;SDS011;11135;54.192;15.670;2024-02-28T16:39:14;9.23;;;3.80;;
21941;SDS011;11135;54.192;15.670;2024-02-28T16:42:41;6.20;;;3.50;;
21941;SDS011;11135;54.192;15.670;2024-02-28T16:46:09;6.65;;;3.63;;
21941;SDS011;11135;54.192;15.670;2024-02-28T16:49:35;8.38;;;3.38;;
21941;SDS011;11135;54.192;15.670;2024-02-28T16:53:01;8.45;;;3.72;;
21941;SDS011;11135;54.192;15.670;2024-02-28T16:56:27;9.45;;;4.05;;
21941;SDS011;11135;54.192;15.670;2024-02-28T16:59:53;9.68;;;4.70;;
21941;SDS011;11135;54.192;15.670;2024-02-28T17:03:24;6.68;;;3.78;;
21941;SDS011;11135;54.192;15.670;2024-02-28T17:06:50;5.70;;;3.08;;
21941;SDS011;11135;54.192;15.670;2024-02-28T17:10:16;8.00;;;3.80;;
21941;SDS011;11135;54.192;15.670;2024-02-28T17:13:42;9.07;;;3.58;;
21941;SDS011;11135;54.192;15.670;2024-02-28T17:17:11;8.90;;;3.78;;
21941;SDS011;11135;54.192;15.670;2024-02-28T17:20:47;7.20;;;3.65;;
21941;SDS011;11135;54.192;15.670;2024-02-28T17:24:22;9.30;;;4.43;;
21941;SDS011;11135;54.192;15.670;2024-02-28T17:27:48;7.68;;;3.78;;
21941;SDS011;11135;54.192;15.670;2024-02-28T17:31:14;7.32;;;3.83;;
21941;SDS011;11135;54.192;15.670;2024-02-28T17:34:39;9.02;;;4.22;;
21941;SDS011;11135;54.192;15.670;2024-02-28T17:38:16;8.18;;;4.18;;
21941;SDS011;11135;54.192;15.670;2024-02-28T17:41:43;8.23;;;4.03;;
21941;SDS011;11135;54.192;15.670;2024-02-28T17:45:10;9.48;;;4.15;;
21941;SDS011;11135;54.192;15.670;2024-02-28T17:48:36;8.50;;;4.75;;
21941;SDS011;11135;54.192;15.670;2024-02-28T17:52:06;7.82;;;4.47;;
21941;SDS011;11135;54.192;15.670;2024-02-28T17:55:35;9.25;;;4.72;;
21941;SDS011;11135;54.192;15.670;2024-02-28T17:59:00;7.45;;;4.70;;
21941;SDS011;11135;54.192;15.670;2024-02-28T18:02:26;9.65;;;5.55;;
21941;SDS011;11135;54.192;15.670;2024-02-28T18:05:52;8.02;;;4.32;;
21941;SDS011;11135;54.192;15.670;2024-02-28T18:09:19;9.13;;;5.10;;
21941;SDS011;11135;54.192;15.670;2024-02-28T18:12:52;9.65;;;5.35;;
21941;SDS011;11135;54.192;15.670;2024-02-28T18:16:18;7.80;;;4.43;;
21941;SDS011;11135;54.192;15.670;2024-02-28T18:19:44;8.85;;;4.75;;
21941;SDS011;11135;54.192;15.670;2024-02-28T18:23:10;8.57;;;5.00;;
21941;SDS011;11135;54.192;15.670;2024-02-28T18:26:49;10.52;;;4.65;;
21941;SDS011;11135;54.192;15.670;2024-02-28T18:30:17;9.07;;;5.90;;
21941;SDS011;11135;54.192;15.670;2024-02-28T18:33:47;11.30;;;6.35;;
21941;SDS011;11135;54.192;15.670;2024-02-28T18:37:13;9.95;;;5.07;;
21941;SDS011;11135;54.192;15.670;2024-02-28T18:40:39;10.80;;;5.32;;
21941;SDS011;11135;54.192;15.670;2024-02-28T18:44:04;9.38;;;4.90;;
21941;SDS011;11135;54.192;15.670;2024-02-28T18:47:32;11.95;;;7.00;;
21941;SDS011;11135;54.192;15.670;2024-02-28T18:50:58;11.35;;;6.05;;
21941;SDS011;11135;54.192;15.670;2024-02-28T18:54:24;10.00;;;6.18;;
21941;SDS011;11135;54.192;15.670;2024-02-28T18:57:51;11.23;;;5.93;;
21941;SDS011;11135;54.192;15.670;2024-02-28T19:01:17;9.80;;;5.80;;
21941;SDS011;11135;54.192;15.670;2024-02-28T19:04:46;10.55;;;5.43;;
21941;SDS011;11135;54.192;15.670;2024-02-28T19:08:11;10.00;;;5.75;;
21941;SDS011;11135;54.192;15.670;2024-02-28T19:11:37;8.57;;;4.80;;
21941;SDS011;11135;54.192;15.670;2024-02-28T19:15:03;12.15;;;5.95;;
21941;SDS011;11135;54.192;15.670;2024-02-28T19:18:34;10.85;;;5.38;;
21941;SDS011;11135;54.192;15.670;2024-02-28T19:22:05;10.38;;;6.07;;
21941;SDS011;11135;54.192;15.670;2024-02-28T19:25:31;13.98;;;7.60;;
21941;SDS011;11135;54.192;15.670;2024-02-28T19:28:56;9.10;;;4.70;;
21941;SDS011;11135;54.192;15.670;2024-02-28T19:32:23;12.35;;;6.20;;
21941;SDS011;11135;54.192;15.670;2024-02-28T19:35:49;12.07;;;6.38;;
21941;SDS011;11135;54.192;15.670;2024-02-28T19:39:18;13.73;;;6.85;;
21941;SDS011;11135;54.192;15.670;2024-02-28T19:42:44;11.93;;;6.65;;
21941;SDS011;11135;54.192;15.670;2024-02-28T19:46:10;13.02;;;6.78;;
21941;SDS011;11135;54.192;15.670;2024-02-28T19:49:36;11.23;;;6.13;;
21941;SDS011;11135;54.192;15.670;2024-02-28T19:53:01;10.07;;;5.43;;
21941;SDS011;11135;54.192;15.670;2024-02-28T19:56:29;11.90;;;6.40;;
21941;SDS011;11135;54.192;15.670;2024-02-28T19:59:55;8.88;;;5.10;;
21941;SDS011;11135;54.192;15.670;2024-02-28T20:03:21;11.13;;;5.85;;
21941;SDS011;11135;54.192;15.670;2024-02-28T20:06:46;10.40;;;5.78;;
21941;SDS011;11135;54.192;15.670;2024-02-28T20:10:12;13.88;;;6.57;;
21941;SDS011;11135;54.192;15.670;2024-02-28T20:13:42;10.75;;;5.22;;
21941;SDS011;11135;54.192;15.670;2024-02-28T20:17:12;9.30;;;5.03;;
21941;SDS011;11135;54.192;15.670;2024-02-28T20:20:39;10.35;;;5.35;;
21941;SDS011;11135;54.192;15.670;2024-02-28T20:24:05;6.43;;;3.38;;